Airfield :
LOGIN :

Register | Disclaimer

   EN    FR    IT 

 










Legend :    VFR   Marginal VFR   IFR   Intensive IFR   Very Intensive IFR
Visi :
Ceiling :
>= 8 km
>= 3000ft
5 to 8 km
1000 to 3000 ft
1500m to 5 km
500 to 1000 ft
800 to 1500m
200 to 500 ft
< 800m
< 200 ft
Symbols :   Thunderstorms  Fog  Heavy snow  Heavy precipitations  Wind > 20 kt
SIGMETs :     Misc.  Thunderstorms  Icing  Turbulence  Mountain Waves  Volcanic Ashes






- Airport Elevation : 302 ft
- IATA code : CGN


EDDK - Cologne Bonn

CURRENT METAR :
  • 010520Z 13003KT 010V180 8000 -DZ OVC004 03/03 Q1012 TEMPO 3000

EXPIRED METARs :
  • 010450Z 15008KT 3000 -DZ FEW004 OVC006 03/03 Q1012 TEMPO 1300
  • 010420Z 15008KT 9999 FEW004 OVC006 03/02 Q1012 TEMPO 4000
  • 010350Z 14007KT 9000 -RADZ FEW006 OVC009 03/02 Q1013 TEMPO 4000
  • 010320Z 13006KT 9999 FEW006 OVC010 03/02 Q1013 TEMPO 4000 BKN009
  • 010250Z 14007KT 9999 -RADZ FEW006 OVC012 03/02 Q1013 TEMPO 4000 BKN009

TAF TAF EDDK
Valid from the 01 at 06:00 until the 02 at 12:00 UTC


010500Z 0106/0212 15007KT 9999 OVC012
TEMPO 0106/0121 4000 -DZRA BKN008
PROB30
TEMPO 0106/0117 1300 DZRA BKN003
BECMG 0120/0123 BKN020



MET'MAP, your aeronautical weather chart ! - Copyright ORBIFLY December 2007 - Disclaimer

ORBIFLY MET'MAP TEAM :

Programming & Development : Alexandra Zaïnal
Concept & original design : Baudouin d'Aumeries
Assistance for programming : Marc-Olivier Méhu
Technical & hardware support : Manuel Goepfert

Contact : metmap@orbifly.com




SOURCES & CREDITS :

   NOAA